Time;durP1;ratioP1;P1;durP2;ratioP2;P2;SDS_P1;SDS_P2;PMS_P1;PMS_P2;Temp;Humidity;BMP_temperature;BMP_pressure;BME280_temperature;BME280_humidity;BME280_pressure;Samples;Min_cycle;Max_cycle;Signal;HPM_P1;HPM_P2
2022/02/27 00:01:32;;;;;;;38.80;14.05;;;;;;;0.51;55.95;102703.37;1760021;81;27482;-57
2022/02/27 00:03:59;;;;;;;34.00;13.43;;;;;;;0.51;55.85;102702.51;1759883;81;25775;-57
2022/02/27 00:06:26;;;;;;;39.03;16.00;;;;;;;0.54;55.91;102707.31;1759957;81;25753;-56
2022/02/27 00:08:53;;;;;;;41.68;13.98;;;;;;;0.60;56.00;102708.52;1759986;81;26081;-57
2022/02/27 00:11:20;;;;;;;37.58;15.85;;;;;;;0.66;55.99;102704.05;1760054;81;25646;-58
2022/02/27 00:13:46;;;;;;;45.85;16.87;;;;;;;0.68;55.88;102703.12;1760744;81;28174;-57
2022/02/27 00:16:13;;;;;;;43.52;15.85;;;;;;;0.72;55.82;102703.48;1759138;81;25799;-58
2022/02/27 00:18:41;;;;;;;33.83;14.95;;;;;;;0.75;55.76;102700.79;1759876;81;25670;-58
2022/02/27 00:21:08;;;;;;;33.00;12.45;;;;;;;0.76;55.89;102701.69;1759523;81;26168;-58
2022/02/27 00:23:35;;;;;;;28.45;11.78;;;;;;;0.73;55.74;102705.23;1760275;81;25704;-58
2022/02/27 00:26:02;;;;;;;27.70;11.68;;;;;;;0.75;55.67;102700.79;1759238;81;28240;-58
2022/02/27 00:28:29;;;;;;;23.65;10.75;;;;;;;0.75;55.48;102702.11;1758917;81;25497;-58
2022/02/27 00:30:56;;;;;;;27.85;12.45;;;;;;;0.76;55.38;102702.55;1743794;81;25721;-58
2022/02/27 00:33:23;;;;;;;26.75;10.88;;;;;;;0.76;55.28;102702.55;1741649;82;26112;-58
2022/02/27 00:35:49;;;;;;;30.70;11.68;;;;;;;0.82;55.59;102700.25;1739303;82;25808;-58
2022/02/27 00:38:17;;;;;;;27.40;10.30;;;;;;;0.87;55.22;102708.12;1739148;82;28198;-59
2022/02/27 00:40:44;;;;;;;33.73;11.10;;;;;;;0.86;55.13;102707.23;1725456;83;25789;-58
2022/02/27 00:43:11;;;;;;;27.48;11.53;;;;;;;0.85;54.96;102705.47;1725434;83;25732;-58
2022/02/27 00:45:39;;;;;;;28.12;10.68;;;;;;;0.85;54.87;102700.64;1725241;83;26829;-58
2022/02/27 00:48:07;;;;;;;31.30;10.90;;;;;;;0.87;54.83;102699.70;1762131;80;25862;-58
2022/02/27 00:50:35;;;;;;;28.30;13.03;;;;;;;0.85;54.80;102708.13;1760535;80;27469;-58
2022/02/27 00:53:02;;;;;;;29.35;10.40;;;;;;;0.88;54.79;102704.58;1762580;80;25813;-58
2022/02/27 00:55:29;;;;;;;20.95;9.58;;;;;;;0.91;54.88;102708.48;1761192;81;25744;-58
2022/02/27 00:57:56;;;;;;;21.35;9.83;;;;;;;0.94;54.85;102711.95;1760476;80;26003;-58
2022/02/27 01:00:23;;;;;;;24.67;12.43;;;;;;;1.00;54.83;102704.81;1733093;82;25751;-57
2022/02/27 01:02:50;;;;;;;27.55;12.58;;;;;;;1.04;54.75;102703.84;1700553;84;27539;-57
2022/02/27 01:05:17;;;;;;;24.90;11.75;;;;;;;1.02;54.59;102713.15;1733315;82;25749;-57
2022/02/27 01:07:44;;;;;;;31.00;12.90;;;;;;;1.02;54.73;102706.98;1700571;84;25805;-57
2022/02/27 01:10:11;;;;;;;28.92;12.70;;;;;;;1.04;54.57;102706.48;1733369;81;26750;-57
2022/02/27 01:12:39;;;;;;;33.80;12.40;;;;;;;1.04;54.48;102701.19;1700692;84;25636;-57
2022/02/27 01:15:09;;;;;;;29.23;11.22;;;;;;;1.05;54.54;102707.81;1733604;81;27411;-57
2022/02/27 01:17:36;;;;;;;28.42;9.63;;;;;;;0.98;54.52;102704.84;1700740;84;25532;-56
2022/02/27 01:20:06;;;;;;;21.45;9.45;;;;;;;0.95;54.54;102707.53;1733510;82;25679;-57
2022/02/27 01:22:34;;;;;;;23.85;10.95;;;;;;;0.97;54.54;102704.84;1733282;82;26967;-56
2022/02/27 01:25:05;;;;;;;23.02;9.20;;;;;;;0.96;54.35;102702.66;1700965;84;25697;-56
2022/02/27 01:27:32;;;;;;;26.60;9.95;;;;;;;0.96;54.40;102705.75;1732075;82;28200;-57
2022/02/27 01:29:59;;;;;;;20.32;8.48;;;;;;;0.91;54.42;102702.74;1733307;82;25778;-57
2022/02/27 01:32:26;;;;;;;24.50;9.43;;;;;;;0.91;54.40;102700.09;1733160;82;25696;-57
2022/02/27 01:34:54;;;;;;;25.52;10.20;;;;;;;0.97;54.37;102702.20;1733323;82;26849;-57
2022/02/27 01:37:21;;;;;;;24.77;11.08;;;;;;;1.00;54.26;102708.32;1733241;82;25468;-57
2022/02/27 01:39:49;;;;;;;22.40;8.63;;;;;;;0.94;54.21;102706.64;1738435;82;27440;-57
2022/02/27 01:42:18;;;;;;;22.95;9.13;;;;;;;0.90;54.19;102703.64;1741515;82;25669;-56
2022/02/27 01:44:46;;;;;;;21.77;9.13;;;;;;;0.86;54.36;102707.23;1741195;82;25798;-57
2022/02/27 01:47:14;;;;;;;28.32;9.68;;;;;;;0.80;54.49;102706.02;1738330;82;26040;-57
2022/02/27 01:49:47;;;;;;;23.40;10.43;;;;;;;0.82;54.44;102707.30;1738064;81;25740;-57
2022/02/27 01:52:15;;;;;;;22.75;9.13;;;;;;;0.85;54.40;102707.27;1738266;82;28123;-58
2022/02/27 01:54:43;;;;;;;18.70;8.88;;;;;;;0.84;54.45;102698.45;1710993;82;25504;-58
2022/02/27 01:57:11;;;;;;;31.00;10.53;;;;;;;0.85;54.38;102708.59;1708785;84;25733;-58
2022/02/27 01:59:39;;;;;;;23.07;9.23;;;;;;;0.80;54.33;102704.69;1719124;82;26090;-58
2022/02/27 02:02:07;;;;;;;24.43;9.60;;;;;;;0.83;54.46;102707.30;1725919;82;25747;-58
2022/02/27 02:04:35;;;;;;;22.52;8.80;;;;;;;0.85;54.30;102709.91;1725445;83;27473;-59
2022/02/27 02:07:03;;;;;;;25.37;10.30;;;;;;;0.85;54.24;102708.59;1725313;83;25704;-58
2022/02/27 02:09:31;;;;;;;21.50;8.38;;;;;;;0.80;54.05;102702.04;1725368;81;25859;-60
2022/02/27 02:12:00;;;;;;;27.45;8.88;;;;;;;0.80;54.18;102703.36;1725725;82;26893;-58
2022/02/27 02:14:27;;;;;;;20.10;8.35;;;;;;;0.86;54.29;102705.90;1725110;83;25793;-58
2022/02/27 02:16:55;;;;;;;25.43;9.58;;;;;;;0.89;54.44;102700.56;1725810;82;27493;-58
2022/02/27 02:19:26;;;;;;;21.45;9.00;;;;;;;0.93;54.44;102702.27;1725559;82;26485;-58
2022/02/27 02:22:01;;;;;;;23.92;8.15;;;;;;;0.97;54.38;102699.12;1725759;81;25781;-58
2022/02/27 02:24:30;;;;;;;22.82;9.08;;;;;;;0.96;54.29;102699.12;1725666;83;26835;-59
2022/02/27 02:26:58;;;;;;;20.82;8.73;;;;;;;0.89;54.14;102699.70;1725678;81;25279;-56
2022/02/27 02:29:26;;;;;;;19.42;8.03;;;;;;;0.88;54.24;102698.81;1733379;81;28159;-57
2022/02/27 02:31:57;;;;;;;18.50;8.08;;;;;;;0.93;54.37;102693.43;1760716;81;26429;-57
2022/02/27 02:34:26;;;;;;;17.77;8.38;;;;;;;0.98;54.32;102694.25;1760258;80;25527;-57
2022/02/27 02:36:55;;;;;;;18.80;7.90;;;;;;;1.00;54.18;102699.51;1760047;81;26748;-58
2022/02/27 02:39:27;;;;;;;16.32;7.65;;;;;;;0.96;54.14;102696.04;1760250;81;25709;-57
2022/02/27 02:41:56;;;;;;;18.20;7.70;;;;;;;0.94;54.40;102701.34;1760381;81;27490;-58
2022/02/27 02:44:26;;;;;;;27.07;8.30;;;;;;;0.92;54.25;102707.14;1759666;80;26117;-58
2022/02/27 02:46:53;;;;;;;17.42;8.00;;;;;;;0.90;54.23;102706.29;1751227;81;25629;-57
2022/02/27 02:49:20;;;;;;;21.37;8.10;;;;;;;0.82;54.32;102704.22;1750681;81;26113;-59
2022/02/27 02:51:48;;;;;;;14.95;7.53;;;;;;;0.80;54.33;102709.98;1750004;81;25691;-58
2022/02/27 02:54:15;;;;;;;21.48;9.08;;;;;;;0.83;54.44;102708.63;1751217;80;27488;-58
2022/02/27 02:56:43;;;;;;;19.27;7.83;;;;;;;0.86;54.40;102700.60;1706039;83;25471;-58
2022/02/27 02:59:10;;;;;;;16.42;7.58;;;;;;;0.83;54.40;102707.30;1751478;81;25786;-58
2022/02/27 03:01:38;;;;;;;28.12;8.93;;;;;;;0.83;54.50;102700.67;1711333;83;26436;-58
2022/02/27 03:04:05;;;;;;;20.23;7.97;;;;;;;0.88;54.50;102704.11;1710531;83;25735;-57
2022/02/27 03:06:33;;;;;;;27.15;8.70;;;;;;;0.92;54.55;102704.50;1711147;83;27495;-57
2022/02/27 03:09:00;;;;;;;19.57;8.50;;;;;;;0.96;54.69;102709.29;1752729;81;25762;-57
2022/02/27 03:11:27;;;;;;;21.10;8.85;;;;;;;0.91;54.29;102709.80;1753403;81;25726;-57
2022/02/27 03:13:59;;;;;;;20.75;9.15;;;;;;;0.83;54.29;102713.03;1752609;81;26205;-57
2022/02/27 03:16:22;;;;;;;21.80;9.53;;;;;;;0.81;54.45;102713.53;1753337;80;25708;-57
2022/02/27 03:18:49;;;;;;;21.85;9.43;;;;;;;0.78;54.78;102714.00;1710966;83;28175;-58
2022/02/27 03:21:16;;;;;;;22.07;9.20;;;;;;;0.73;55.02;102716.30;1752825;81;27234;-57
2022/02/27 03:23:43;;;;;;;24.27;8.85;;;;;;;0.68;54.85;102718.13;1752950;81;25746;-58
2022/02/27 03:26:10;;;;;;;24.75;8.98;;;;;;;0.64;55.18;102716.44;1753420;81;26080;-57
2022/02/27 03:28:37;;;;;;;22.32;9.70;;;;;;;0.61;55.43;102709.42;1753096;81;25446;-57
2022/02/27 03:31:04;;;;;;;20.70;8.83;;;;;;;0.56;55.69;102714.78;1686065;83;27463;-57
2022/02/27 03:33:31;;;;;;;28.15;10.80;;;;;;;0.52;55.53;102711.75;1723180;83;25712;-57
2022/02/27 03:35:57;;;;;;;21.85;8.73;;;;;;;0.51;55.63;102708.66;1722932;83;25781;-57
2022/02/27 03:38:24;;;;;;;23.65;9.05;;;;;;;0.50;55.78;102707.38;1724441;81;26073;-58
2022/02/27 03:40:51;;;;;;;21.55;9.60;;;;;;;0.44;55.61;102707.02;1753343;81;25711;-58
2022/02/27 03:43:18;;;;;;;20.20;8.58;;;;;;;0.45;55.89;102713.60;1753384;81;28156;-58
2022/02/27 03:45:45;;;;;;;22.73;8.85;;;;;;;0.45;56.01;102710.09;1712099;83;25748;-58
2022/02/27 03:48:12;;;;;;;24.32;9.28;;;;;;;0.43;56.04;102711.88;1711061;83;25513;-58
2022/02/27 03:50:39;;;;;;;20.37;8.70;;;;;;;0.41;56.08;102717.64;1711284;83;26135;-57
2022/02/27 03:53:06;;;;;;;25.57;9.78;;;;;;;0.39;56.31;102717.67;1711430;83;25748;-57
2022/02/27 03:55:33;;;;;;;30.20;9.90;;;;;;;0.37;56.26;102715.95;1752866;81;27488;-58
2022/02/27 03:58:00;;;;;;;26.62;8.88;;;;;;;0.34;56.16;102714.66;1711179;83;25697;-58
2022/02/27 04:00:27;;;;;;;30.20;9.78;;;;;;;0.31;56.13;102719.56;1725247;82;25785;-58
2022/02/27 04:02:54;;;;;;;23.27;10.58;;;;;;;0.29;56.37;102719.59;1770351;80;26115;-59
2022/02/27 04:05:21;;;;;;;17.65;8.65;;;;;;;0.26;56.52;102714.33;1770180;81;25815;-59
2022/02/27 04:07:48;;;;;;;24.23;9.13;;;;;;;0.23;56.70;102707.74;1731167;82;27492;-59
2022/02/27 04:10:15;;;;;;;21.33;10.58;;;;;;;0.20;56.82;102716.17;1769755;81;25617;-58
2022/02/27 04:12:42;;;;;;;24.65;10.40;;;;;;;0.18;56.66;102706.95;1770481;80;25691;-59
2022/02/27 04:15:11;;;;;;;28.87;10.70;;;;;;;0.19;56.77;102710.02;1769497;81;26874;-58
2022/02/27 04:17:38;;;;;;;36.85;10.10;;;;;;;0.18;56.75;102705.63;1770263;80;25683;-58
2022/02/27 04:20:08;;;;;;;21.82;10.05;;;;;;;0.18;56.81;102710.05;1769541;81;27625;-58
2022/02/27 04:22:34;;;;;;;25.35;10.70;;;;;;;0.17;56.91;102711.81;1769870;81;25783;-60
2022/02/27 04:25:02;;;;;;;28.52;8.95;;;;;;;0.19;56.93;102712.67;1769505;81;25739;-59
2022/02/27 04:27:29;;;;;;;22.02;8.88;;;;;;;0.14;57.05;102705.22;1770273;81;26072;-59
2022/02/27 04:29:55;;;;;;;18.10;9.23;;;;;;;0.14;57.17;102703.90;1769449;80;25790;-59
2022/02/27 04:32:22;;;;;;;23.52;9.50;;;;;;;0.14;57.42;102702.58;1768415;81;27475;-59
2022/02/27 04:34:49;;;;;;;20.97;9.88;;;;;;;0.15;57.35;102703.00;1768304;81;25704;-59
2022/02/27 04:37:18;;;;;;;26.50;10.80;;;;;;;0.17;57.35;102699.04;1768084;81;25804;-58
2022/02/27 04:39:45;;;;;;;22.50;8.98;;;;;;;0.16;57.38;102703.44;1730770;82;26509;-58
2022/02/27 04:42:12;;;;;;;21.65;9.80;;;;;;;0.13;57.40;102708.80;1770028;80;25740;-58
2022/02/27 04:44:41;;;;;;;23.90;9.63;;;;;;;0.10;57.73;102704.86;1769671;80;27471;-58
2022/02/27 04:47:12;;;;;;;24.65;9.80;;;;;;;0.08;57.70;102705.31;1768555;81;25798;-58
2022/02/27 04:49:39;;;;;;;28.87;12.25;;;;;;;0.07;57.89;102700.91;1767939;81;25759;-58
2022/02/27 04:52:06;;;;;;;24.05;9.50;;;;;;;0.07;57.95;102703.12;1768261;81;26029;-58
2022/02/27 04:54:35;;;;;;;25.08;9.50;;;;;;;0.05;58.04;102705.34;1768576;81;27327;-58
2022/02/27 04:57:03;;;;;;;24.60;9.30;;;;;;;0.04;58.03;102714.21;1768499;81;27486;-59
2022/02/27 04:59:30;;;;;;;26.52;10.53;;;;;;;0.07;58.09;102714.15;1766187;81;25572;-58
2022/02/27 05:01:57;;;;;;;21.57;9.90;;;;;;;0.11;58.10;102711.44;1759695;81;25690;-58
2022/02/27 05:04:24;;;;;;;28.27;10.08;;;;;;;0.14;58.18;102726.39;1759889;81;26134;-58
2022/02/27 05:06:50;;;;;;;21.95;10.03;;;;;;;0.12;58.07;102727.75;1759688;81;25781;-58
2022/02/27 05:09:19;;;;;;;23.35;9.28;;;;;;;0.14;58.26;102733.02;1760251;81;27446;-58
2022/02/27 05:11:48;;;;;;;21.57;9.10;;;;;;;0.17;58.25;102731.66;1759801;81;25758;-59
2022/02/27 05:14:15;;;;;;;21.17;8.25;;;;;;;0.15;58.34;102724.18;1760116;81;25764;-59
2022/02/27 05:16:42;;;;;;;19.62;9.55;;;;;;;0.13;58.50;102724.67;1759947;81;27223;-58
2022/02/27 05:19:10;;;;;;;26.25;10.58;;;;;;;0.12;58.41;102736.16;1760322;81;25826;-58
2022/02/27 05:21:37;;;;;;;30.52;10.85;;;;;;;0.15;58.71;102731.69;1759711;81;27384;-59
2022/02/27 05:24:06;;;;;;;21.17;9.43;;;;;;;0.17;58.49;102736.09;1759083;81;25876;-59
2022/02/27 05:26:33;;;;;;;20.15;10.32;;;;;;;0.19;58.68;102727.66;1759514;81;25715;-58
2022/02/27 05:29:00;;;;;;;22.48;9.35;;;;;;;0.23;59.14;102726.73;1758440;81;28289;-58
2022/02/27 05:31:27;;;;;;;23.92;9.15;;;;;;;0.23;58.75;102724.95;1741279;82;25660;-58
2022/02/27 05:33:54;;;;;;;22.73;10.08;;;;;;;0.28;58.70;102733.72;1740924;82;28281;-58
2022/02/27 05:36:20;;;;;;;23.87;9.30;;;;;;;0.36;58.82;102738.89;1740930;81;25783;-58
2022/02/27 05:38:47;;;;;;;25.43;10.45;;;;;;;0.42;58.77;102737.93;1735836;82;26433;-58
2022/02/27 05:41:15;;;;;;;36.83;10.70;;;;;;;0.51;58.78;102736.94;1751220;80;26782;-59
2022/02/27 05:43:42;;;;;;;24.85;10.43;;;;;;;0.55;58.72;102737.30;1750836;80;25719;-59
2022/02/27 05:46:09;;;;;;;27.90;10.78;;;;;;;0.57;58.78;102736.41;1750872;81;27186;-59
2022/02/27 05:48:37;;;;;;;23.35;10.10;;;;;;;0.60;58.68;102735.02;1752168;80;25771;-58
2022/02/27 05:51:04;;;;;;;22.40;9.95;;;;;;;0.65;58.28;102741.56;1751269;80;25740;-58
2022/02/27 05:53:31;;;;;;;24.60;12.18;;;;;;;0.70;58.34;102743.72;1749662;81;26068;-58
2022/02/27 05:55:57;;;;;;;32.25;11.03;;;;;;;0.75;58.16;102747.62;1753650;80;25732;-58
2022/02/27 05:58:26;;;;;;;32.85;11.93;;;;;;;0.82;58.08;102735.13;1757175;81;27528;-59
2022/02/27 06:00:54;;;;;;;29.65;12.18;;;;;;;0.84;57.89;102739.52;1755580;80;25839;-59
2022/02/27 06:03:21;;;;;;;25.45;12.90;;;;;;;0.84;57.75;102755.42;1754288;81;25777;-59
2022/02/27 06:05:48;;;;;;;34.20;13.15;;;;;;;0.88;57.72;102742.53;1755032;81;26966;-59
2022/02/27 06:08:15;;;;;;;32.40;11.12;;;;;;;0.84;57.56;102746.15;1754345;81;25783;-58
2022/02/27 06:10:42;;;;;;;24.12;11.43;;;;;;;0.85;57.41;102747.87;1754988;81;27440;-58
2022/02/27 06:13:09;;;;;;;29.45;12.90;;;;;;;0.90;57.42;102747.36;1754712;81;25882;-57
2022/02/27 06:15:36;;;;;;;28.15;12.40;;;;;;;0.95;57.44;102744.64;1754471;81;25663;-57
2022/02/27 06:18:05;;;;;;;24.37;10.03;;;;;;;1.03;57.47;102749.83;1754621;81;26023;-58
2022/02/27 06:20:31;;;;;;;32.83;12.28;;;;;;;1.06;57.22;102746.67;1754791;81;25719;-59
2022/02/27 06:22:58;;;;;;;26.68;11.45;;;;;;;1.03;56.91;102751.15;1755044;81;27485;-59
2022/02/27 06:25:25;;;;;;;25.32;10.78;;;;;;;1.06;57.08;102752.41;1754665;81;26223;-58
2022/02/27 06:27:52;;;;;;;30.43;12.58;;;;;;;1.12;57.06;102748.31;1754985;81;25768;-57
2022/02/27 06:30:22;;;;;;;36.50;12.35;;;;;;;1.18;56.97;102752.20;1752037;81;26964;-58
2022/02/27 06:32:51;;;;;;;26.60;11.25;;;;;;;1.21;56.77;102757.91;1749866;80;25696;-59
2022/02/27 06:35:22;;;;;;;33.90;12.73;;;;;;;1.32;56.92;102766.98;1749934;80;27460;-59
2022/02/27 06:37:52;;;;;;;30.40;11.63;;;;;;;1.41;56.79;102761.52;1749838;82;25790;-59
2022/02/27 06:40:20;;;;;;;37.50;11.57;;;;;;;1.47;56.50;102759.20;1731555;81;25799;-59
2022/02/27 06:42:47;;;;;;;29.05;12.03;;;;;;;1.47;56.24;102762.75;1729497;83;26062;-59
2022/02/27 06:45:17;;;;;;;33.33;10.43;;;;;;;1.52;56.21;102757.37;1728832;82;25758;-58
2022/02/27 06:47:44;;;;;;;26.05;10.93;;;;;;;1.60;56.21;102758.09;1727285;83;28363;-58
2022/02/27 06:50:13;;;;;;;32.48;13.10;;;;;;;1.66;56.02;102769.91;1727546;82;25780;-58
2022/02/27 06:52:41;;;;;;;26.33;11.78;;;;;;;1.73;55.77;102769.34;1727933;82;25767;-57
2022/02/27 06:55:08;;;;;;;32.15;12.53;;;;;;;1.81;55.48;102771.39;1727572;82;27250;-59
2022/02/27 06:57:35;;;;;;;36.23;12.53;;;;;;;1.81;55.43;102774.05;1727876;82;25721;-59
2022/02/27 07:00:06;;;;;;;32.90;13.45;;;;;;;1.87;55.46;102774.38;1727845;82;27547;-59
2022/02/27 07:02:33;;;;;;;25.55;12.98;;;;;;;1.93;55.45;102776.91;1730627;82;25812;-59
2022/02/27 07:04:59;;;;;;;28.80;11.93;;;;;;;2.01;55.10;102763.02;1730208;81;25778;-58
2022/02/27 07:07:26;;;;;;;35.90;12.88;;;;;;;2.06;55.01;102764.72;1730555;81;26123;-58
2022/02/27 07:09:55;;;;;;;36.90;13.50;;;;;;;2.06;54.99;102769.56;1730995;82;25446;-58
2022/02/27 07:12:21;;;;;;;28.25;11.97;;;;;;;2.11;54.95;102762.83;1730804;82;27392;-58
2022/02/27 07:14:49;;;;;;;26.68;10.63;;;;;;;2.12;54.74;102761.93;1730284;82;27251;-59
2022/02/27 07:17:15;;;;;;;33.33;13.00;;;;;;;2.16;54.82;102768.47;1728538;82;25999;-59
2022/02/27 07:19:42;;;;;;;34.85;13.35;;;;;;;2.25;54.51;102763.87;1730571;82;26147;-59
2022/02/27 07:22:10;;;;;;;33.35;13.75;;;;;;;2.33;54.33;102768.56;1730129;82;25721;-59
2022/02/27 07:24:37;;;;;;;34.35;13.68;;;;;;;2.38;54.22;102774.63;1730329;82;28321;-59
2022/02/27 07:27:04;;;;;;;30.60;12.95;;;;;;;2.46;54.10;102765.17;1730070;82;25693;-59
2022/02/27 07:29:32;;;;;;;32.28;13.83;;;;;;;2.50;54.04;102767.73;1733207;82;25733;-59
2022/02/27 07:32:00;;;;;;;25.75;11.75;;;;;;;2.60;54.05;102768.84;1738879;82;26082;-59
2022/02/27 07:34:27;;;;;;;28.40;12.78;;;;;;;2.66;53.76;102771.36;1741761;82;25788;-59
2022/02/27 07:36:55;;;;;;;34.05;14.45;;;;;;;2.65;53.46;102776.25;1741323;82;27455;-59
2022/02/27 07:39:24;;;;;;;45.88;14.45;;;;;;;2.72;53.51;102776.55;1711129;82;25708;-59
2022/02/27 07:41:52;;;;;;;33.80;13.43;;;;;;;2.80;53.25;102779.90;1720979;82;25740;-59
2022/02/27 07:44:20;;;;;;;24.00;12.05;;;;;;;2.85;53.12;102773.58;1700459;82;26165;-59
2022/02/27 07:46:47;;;;;;;32.25;15.15;;;;;;;2.86;52.75;102779.32;1749687;81;25921;-59
2022/02/27 07:49:15;;;;;;;30.77;14.05;;;;;;;2.89;52.99;102784.58;1750929;81;28714;-59
2022/02/27 07:51:43;;;;;;;40.40;16.75;;;;;;;2.97;52.97;102787.92;1750080;80;25806;-59
2022/02/27 07:54:11;;;;;;;32.13;13.28;;;;;;;3.04;52.86;102789.98;1750302;81;25712;-57
2022/02/27 07:56:38;;;;;;;33.30;14.10;;;;;;;3.13;52.93;102782.64;1751003;80;26149;-58
2022/02/27 07:59:05;;;;;;;23.25;13.50;;;;;;;3.28;52.91;102785.38;1750612;81;25739;-57
2022/02/27 08:01:33;;;;;;;37.38;14.25;;;;;;;3.34;52.27;102783.02;1750857;81;27472;-59
2022/02/27 08:04:00;;;;;;;34.53;14.65;;;;;;;3.45;52.49;102782.73;1752366;81;25858;-58
2022/02/27 08:06:27;;;;;;;38.05;12.47;;;;;;;3.54;51.92;102781.63;1752859;81;25515;-58
2022/02/27 08:08:55;;;;;;;21.60;10.20;;;;;;;3.57;51.65;102785.08;1752660;80;26766;-58
2022/02/27 08:11:22;;;;;;;38.40;13.13;;;;;;;3.54;50.98;102781.63;1753037;80;25529;-58
2022/02/27 08:13:49;;;;;;;31.27;11.03;;;;;;;3.52;51.12;102782.97;1752944;81;27485;-58
2022/02/27 08:16:15;;;;;;;22.37;10.58;;;;;;;3.58;51.46;102788.16;1752889;81;25709;-59
2022/02/27 08:18:43;;;;;;;29.75;12.03;;;;;;;3.66;51.20;102787.93;1752672;81;25811;-58
2022/02/27 08:21:10;;;;;;;24.47;10.63;;;;;;;3.63;51.02;102781.34;1752802;81;28117;-58
2022/02/27 08:23:37;;;;;;;27.93;10.50;;;;;;;3.68;50.99;102784.78;1753208;81;25803;-58
2022/02/27 08:26:04;;;;;;;23.18;10.15;;;;;;;3.73;50.96;102768.68;1753370;80;27362;-58
2022/02/27 08:28:31;;;;;;;20.40;9.23;;;;;;;3.72;50.58;102774.44;1753132;81;25737;-57
2022/02/27 08:31:00;;;;;;;21.62;9.48;;;;;;;3.70;50.60;102766.98;1711600;83;25478;-57
2022/02/27 08:33:28;;;;;;;23.52;9.75;;;;;;;3.72;50.52;102769.59;1742473;80;26098;-58
2022/02/27 08:35:56;;;;;;;22.90;10.75;;;;;;;3.76;50.51;102772.59;1742620;82;25254;-57
2022/02/27 08:38:24;;;;;;;23.32;10.43;;;;;;;3.79;50.81;102769.83;1742578;81;27471;-58
2022/02/27 08:40:51;;;;;;;23.42;9.80;;;;;;;3.88;50.99;102766.05;1753189;81;25747;-58
2022/02/27 08:43:19;;;;;;;24.55;11.10;;;;;;;4.01;50.90;102770.09;1752837;81;25783;-58
2022/02/27 08:45:46;;;;;;;23.62;9.75;;;;;;;4.05;50.65;102768.20;1759268;81;25985;-58
2022/02/27 08:48:13;;;;;;;20.55;9.65;;;;;;;4.06;50.65;102764.19;1764460;81;25627;-57
2022/02/27 08:50:40;;;;;;;23.50;9.60;;;;;;;4.20;50.69;102765.12;1764673;80;27486;-58
2022/02/27 08:53:06;;;;;;;20.85;9.55;;;;;;;4.30;50.73;102766.17;1764584;81;25778;-58
2022/02/27 08:55:33;;;;;;;25.20;9.78;;;;;;;4.37;50.13;102761.92;1764501;81;25923;-57
2022/02/27 08:58:00;;;;;;;21.97;9.23;;;;;;;4.41;50.20;102763.17;1764619;80;26116;-59
2022/02/27 09:00:27;;;;;;;26.42;9.00;;;;;;;4.51;50.12;102758.84;1764702;81;25771;-58
2022/02/27 09:02:54;;;;;;;24.00;9.68;;;;;;;4.63;49.96;102762.91;1761746;80;27500;-58
2022/02/27 09:05:21;;;;;;;20.27;8.60;;;;;;;4.81;50.06;102760.57;1761892;81;25819;-59
2022/02/27 09:07:48;;;;;;;26.42;9.73;;;;;;;4.97;49.78;102756.95;1761295;81;25469;-58
2022/02/27 09:10:15;;;;;;;23.67;10.78;;;;;;;5.15;49.61;102758.14;1762019;81;26100;-58
2022/02/27 09:12:45;;;;;;;21.42;9.40;;;;;;;5.23;49.08;102750.75;1762021;81;25731;-58
2022/02/27 09:15:15;;;;;;;18.98;9.25;;;;;;;5.30;48.66;102752.72;1762064;80;27472;-58
2022/02/27 09:17:41;;;;;;;28.07;9.60;;;;;;;5.43;48.84;102753.16;1761764;81;25804;-58
2022/02/27 09:20:10;;;;;;;40.83;9.80;;;;;;;5.66;48.92;102744.34;1762008;81;25708;-59
2022/02/27 09:22:37;;;;;;;21.33;9.00;;;;;;;5.95;48.98;102739.28;1762239;81;26114;-58
2022/02/27 09:25:06;;;;;;;24.77;9.30;;;;;;;6.21;47.81;102741.90;1762073;80;25520;-58
2022/02/27 09:27:33;;;;;;;20.68;9.90;;;;;;;6.46;47.86;102737.81;1762280;81;27450;-58
2022/02/27 09:30:00;;;;;;;20.55;8.65;;;;;;;6.66;46.84;102738.82;1752236;80;25733;-58
2022/02/27 09:32:27;;;;;;;21.15;9.70;;;;;;;6.85;46.68;102731.78;1739081;82;25471;-57
2022/02/27 09:34:54;;;;;;;20.85;9.48;;;;;;;7.18;46.93;102727.27;1741216;81;26099;-58
2022/02/27 09:37:21;;;;;;;19.80;9.35;;;;;;;7.35;45.64;102719.83;1754904;81;25680;-58
2022/02/27 09:39:48;;;;;;;23.07;8.90;;;;;;;7.48;45.04;102713.50;1729745;82;27456;-57
2022/02/27 09:42:15;;;;;;;18.45;9.75;;;;;;;7.69;44.54;102714.78;1750308;81;25834;-57
2022/02/27 09:44:44;;;;;;;19.87;9.00;;;;;;;7.92;44.33;102704.36;1706317;82;25481;-57
2022/02/27 09:47:14;;;;;;;20.65;8.78;;;;;;;8.19;43.75;102705.34;1702827;84;26149;-57
2022/02/27 09:49:45;;;;;;;24.55;8.93;;;;;;;8.45;43.24;102701.87;1703016;84;25784;-58
2022/02/27 09:52:13;;;;;;;16.75;8.03;;;;;;;8.63;42.60;102694.78;1702843;84;27453;-58
2022/02/27 09:54:41;;;;;;;18.02;8.70;;;;;;;8.98;42.53;102696.16;1702651;84;25519;-57
2022/02/27 09:57:18;;;;;;;22.35;8.03;;;;;;;9.26;42.61;102691.16;1702815;84;25813;-58
2022/02/27 09:59:45;;;;;;;20.92;6.67;;;;;;;9.45;41.68;102684.36;1703206;84;26044;-58
2022/02/27 10:02:13;;;;;;;15.72;5.95;;;;;;;9.75;41.76;102687.66;1703338;83;25742;-58
2022/02/27 10:04:42;;;;;;;14.78;6.30;;;;;;;9.95;40.97;102684.76;1689291;83;27580;-57
2022/02/27 10:07:15;;;;;;;19.77;9.00;;;;;;;9.99;40.30;102670.20;1658003;86;25797;-58
2022/02/27 10:09:44;;;;;;;20.57;8.08;;;;;;;10.12;40.06;102673.08;1657996;86;25960;-58
2022/02/27 10:12:23;;;;;;;15.45;6.12;;;;;;;10.37;40.54;102674.39;1657931;85;26078;-58
2022/02/27 10:15:07;;;;;;;16.82;5.60;;;;;;;10.61;39.59;102672.11;1657997;86;25386;-58
2022/02/27 10:17:41;;;;;;;16.27;6.40;;;;;;;10.72;38.46;102666.55;1657954;86;27560;-57
2022/02/27 10:20:13;;;;;;;13.32;6.12;;;;;;;10.92;38.27;102668.08;1658182;86;25775;-58
2022/02/27 10:22:48;;;;;;;10.60;5.90;;;;;;;11.52;36.50;102655.45;1657961;86;25689;-58
2022/02/27 10:25:27;;;;;;;12.43;5.83;;;;;;;12.43;36.95;102646.92;1711616;83;26279;-58
2022/02/27 10:28:02;;;;;;;16.35;5.75;;;;;;;13.00;36.06;102638.16;1711941;83;25718;-58
2022/02/27 10:30:34;;;;;;;20.70;7.28;;;;;;;13.75;35.22;102633.36;1709280;83;28365;-58
2022/02/27 10:33:05;;;;;;;20.25;6.70;;;;;;;14.40;33.05;102627.71;1709192;83;25860;-58
2022/02/27 10:35:46;;;;;;;17.15;6.00;;;;;;;15.08;34.19;102614.91;1704787;84;26054;-58
2022/02/27 10:38:44;;;;;;;15.15;5.40;;;;;;;15.47;33.04;102614.05;1677818;83;27026;-58
2022/02/27 10:41:10;;;;;;;16.20;5.83;;;;;;;16.11;30.19;102602.54;1676001;84;25499;-59
2022/02/27 10:43:43;;;;;;;12.73;5.05;;;;;;;17.20;27.76;102606.95;1677604;85;28173;-58
2022/02/27 10:46:13;;;;;;;10.80;5.17;;;;;;;17.73;27.89;102603.65;1664183;84;25849;-58
2022/02/27 10:48:40;;;;;;;11.68;5.20;;;;;;;18.26;26.51;102600.63;1738862;82;25442;-58
2022/02/27 10:51:11;;;;;;;12.82;4.80;;;;;;;18.69;25.76;102594.87;1739062;81;26061;-58
2022/02/27 10:53:49;;;;;;;11.57;5.20;;;;;;;18.87;23.98;102595.00;1738524;81;25888;-58
2022/02/27 10:56:16;;;;;;;8.55;4.17;;;;;;;19.35;25.39;102591.27;1738539;82;27471;-58
2022/02/27 10:58:46;;;;;;;12.23;5.08;;;;;;;19.33;23.85;102587.83;1739165;81;25775;-58
2022/02/27 11:01:24;;;;;;;9.63;5.17;;;;;;;19.19;23.04;102582.86;1739252;81;26469;-60
2022/02/27 11:03:54;;;;;;;10.15;4.20;;;;;;;19.09;23.25;102573.37;1737068;81;26178;-57
2022/02/27 11:06:23;;;;;;;7.95;3.20;;;;;;;18.44;22.77;102577.59;1738961;81;25715;-58
2022/02/27 11:08:51;;;;;;;6.00;2.58;;;;;;;17.77;23.92;102576.50;1738914;82;27469;-58
2022/02/27 11:11:20;;;;;;;6.85;2.90;;;;;;;17.03;21.65;102574.44;1738796;82;25471;-58
2022/02/27 11:13:47;;;;;;;9.43;2.70;;;;;;;15.87;23.09;102575.58;1739493;81;25981;-60
2022/02/27 11:16:15;;;;;;;11.20;2.92;;;;;;;15.26;24.62;102574.14;1738935;81;26065;-59
2022/02/27 11:18:44;;;;;;;10.40;3.12;;;;;;;14.92;24.33;102566.45;1738756;82;25824;-58
2022/02/27 11:21:11;;;;;;;7.00;3.50;;;;;;;14.43;25.33;102565.69;1738886;81;26964;-59
2022/02/27 11:23:44;;;;;;;7.50;2.72;;;;;;;14.01;26.03;102569.70;1738769;82;26364;-58
2022/02/27 11:26:10;;;;;;;9.08;2.83;;;;;;;13.72;25.25;102569.13;1739128;82;25732;-58